createdAt,value
2023-04-06T00:02:01.211Z,100134.88
2023-04-06T00:04:28.918Z,100133.13
2023-04-06T00:06:57.594Z,100131.41
2023-04-06T00:09:25.292Z,100128.78
2023-04-06T00:11:53.247Z,100131.50
2023-04-06T00:14:21.269Z,100129.88
2023-04-06T00:16:48.984Z,100130.84
2023-04-06T00:19:16.950Z,100122.19
2023-04-06T00:21:44.648Z,100128.50
2023-04-06T00:24:12.995Z,100123.25
2023-04-06T00:26:40.743Z,100124.22
2023-04-06T00:29:08.646Z,100123.34
2023-04-06T00:31:36.803Z,100111.16
2023-04-06T00:34:04.627Z,100114.56
2023-04-06T00:36:32.962Z,100113.72
2023-04-06T00:39:00.738Z,100112.94
2023-04-06T00:41:28.367Z,100105.94
2023-04-06T00:43:56.074Z,100104.34
2023-04-06T00:46:24.126Z,100097.34
2023-04-06T00:48:51.806Z,100092.09
2023-04-06T00:51:19.439Z,100096.47
2023-04-06T00:53:47.663Z,100086.81
2023-04-06T00:56:15.661Z,100084.09
2023-04-06T00:58:43.300Z,100084.66
2023-04-06T01:01:11.022Z,100088.03
2023-04-06T01:03:38.694Z,100080.16
2023-04-06T01:06:06.342Z,100078.44
2023-04-06T01:08:35.448Z,100070.50
2023-04-06T01:11:03.123Z,100078.19
2023-04-06T01:13:31.134Z,100065.00
2023-04-06T01:15:58.907Z,100068.50
2023-04-06T01:18:26.765Z,100072.09
2023-04-06T01:20:54.587Z,100073.97
2023-04-06T01:23:22.277Z,100060.19
2023-04-06T01:25:50.262Z,100061.25
2023-04-06T01:28:17.867Z,100052.72
2023-04-06T01:30:46.019Z,100060.81
2023-04-06T01:33:13.634Z,100053.16
2023-04-06T01:35:41.354Z,100048.13
2023-04-06T01:38:09.284Z,100049.19
2023-04-06T01:40:36.900Z,100042.34
2023-04-06T01:43:04.574Z,100047.75
2023-04-06T01:45:32.461Z,100043.47
2023-04-06T01:48:00.235Z,100040.91
2023-04-06T01:50:28.557Z,100040.09
2023-04-06T01:52:56.263Z,100043.69
2023-04-06T01:55:23.879Z,100038.59
2023-04-06T01:57:51.769Z,100040.44
2023-04-06T02:00:19.956Z,100040.53
2023-04-06T02:02:47.994Z,100035.44
2023-04-06T02:05:15.790Z,100034.56
2023-04-06T02:07:43.470Z,100029.44
2023-04-06T02:10:11.154Z,100029.50
2023-04-06T02:12:38.762Z,100026.03
2023-04-06T02:15:06.762Z,100032.13
2023-04-06T02:17:34.441Z,100023.34
2023-04-06T02:20:02.116Z,100033.00
2023-04-06T02:22:30.028Z,100033.09
2023-04-06T02:24:57.744Z,100035.72
2023-04-06T02:27:25.836Z,100034.00
2023-04-06T02:29:53.516Z,100032.31
2023-04-06T02:32:21.221Z,100029.69
2023-04-06T02:34:50.713Z,100022.75
2023-04-06T02:37:18.377Z,100024.56
2023-04-06T02:39:46.429Z,100018.53
2023-04-06T02:42:14.359Z,100024.69
2023-04-06T02:44:42.012Z,100022.97
2023-04-06T02:47:09.926Z,100028.31
2023-04-06T02:49:37.549Z,100026.56
2023-04-06T02:52:05.539Z,100025.78
2023-04-06T02:54:33.184Z,100031.03
2023-04-06T02:57:01.481Z,100019.72
2023-04-06T02:59:29.403Z,100024.06
2023-04-06T03:01:57.040Z,100024.94
2023-04-06T03:04:26.862Z,100027.63
2023-04-06T03:06:54.504Z,100025.91
2023-04-06T03:09:22.110Z,100020.72
2023-04-06T03:11:49.814Z,100021.69
2023-04-06T03:14:18.874Z,100021.75
2023-04-06T03:16:46.816Z,100025.28
2023-04-06T03:19:14.876Z,100023.56
2023-04-06T03:21:42.558Z,100021.81
2023-04-06T03:24:10.201Z,100027.97
2023-04-06T03:26:37.858Z,100020.97
2023-04-06T03:29:06.136Z,100027.13
2023-04-06T03:31:34.014Z,100020.31
2023-04-06T03:34:01.682Z,100022.00
2023-04-06T03:36:29.416Z,100015.91
2023-04-06T03:38:57.059Z,100018.47
2023-04-06T03:41:25.085Z,100018.41
2023-04-06T03:43:52.933Z,100022.75
2023-04-06T03:46:20.539Z,100015.81
2023-04-06T03:48:48.251Z,100015.84
2023-04-06T03:51:15.957Z,100019.31
2023-04-06T03:53:43.936Z,100010.59
2023-04-06T03:56:11.559Z,100022.84
2023-04-06T03:58:39.220Z,100019.31
2023-04-06T04:01:07.908Z,100020.16
2023-04-06T04:03:35.649Z,100014.16
2023-04-06T04:06:03.696Z,100021.13
2023-04-06T04:08:31.329Z,100023.81
2023-04-06T04:10:58.975Z,100030.81
2023-04-06T04:13:26.863Z,100023.94
2023-04-06T04:15:54.820Z,100029.19
2023-04-06T04:18:22.452Z,100022.22
2023-04-06T04:20:50.136Z,100022.22
2023-04-06T04:23:18.109Z,100029.22
2023-04-06T04:25:46.394Z,100029.31
2023-04-06T04:28:14.065Z,100034.53
2023-04-06T04:30:42.106Z,100021.44
2023-04-06T04:33:09.789Z,100028.44
2023-04-06T04:35:37.498Z,100025.88
2023-04-06T04:38:05.189Z,100024.16
2023-04-06T04:40:32.818Z,100025.94
2023-04-06T04:43:00.809Z,100024.25
2023-04-06T04:45:28.910Z,100023.31
2023-04-06T04:47:56.656Z,100022.41
2023-04-06T04:50:24.644Z,100018.81
2023-04-06T04:52:52.319Z,100023.16
2023-04-06T04:55:20.325Z,100018.81
2023-04-06T04:57:48.016Z,100018.91
2023-04-06T05:00:15.710Z,100017.34
2023-04-06T05:02:43.537Z,100015.75
2023-04-06T05:05:11.372Z,100014.91
2023-04-06T05:07:39.708Z,100008.69
2023-04-06T05:10:07.346Z,100012.91
2023-04-06T05:12:35.043Z,100020.56
2023-04-06T05:15:02.883Z,100021.25
2023-04-06T05:17:30.537Z,100019.25
2023-04-06T05:19:58.393Z,100012.06
2023-04-06T05:22:26.434Z,100013.66
2023-04-06T05:24:54.073Z,100012.59
2023-04-06T05:27:21.880Z,100008.84
2023-04-06T05:29:50.057Z,100015.63
2023-04-06T05:32:18.072Z,100014.59
2023-04-06T05:34:45.803Z,100005.63
2023-04-06T05:37:13.461Z,100011.59
2023-04-06T05:39:41.466Z,100010.50
2023-04-06T05:42:09.148Z,100009.44
2023-04-06T05:44:36.846Z,100015.25
2023-04-06T05:47:04.525Z,100011.44
2023-04-06T05:49:32.321Z,100016.31
2023-04-06T05:52:01.482Z,100006.34
2023-04-06T05:54:29.205Z,100011.06
2023-04-06T05:56:56.875Z,100014.09
2023-04-06T05:59:24.997Z,100009.31
2023-04-06T06:01:52.810Z,100009.63
2023-04-06T06:04:20.755Z,100008.25
2023-04-06T06:06:48.424Z,99998.03
2023-04-06T06:09:16.469Z,100001.72
2023-04-06T06:11:44.306Z,99994.06
2023-04-06T06:14:12.011Z,99997.56
2023-04-06T06:16:40.162Z,99992.19
2023-04-06T06:19:08.262Z,99993.03
2023-04-06T06:21:36.354Z,99993.81
2023-04-06T06:24:04.022Z,99986.03
2023-04-06T06:26:31.829Z,99986.13
2023-04-06T06:28:59.674Z,99984.50
2023-04-06T06:31:27.351Z,99984.66
2023-04-06T06:33:55.446Z,99980.34
2023-04-06T06:36:23.641Z,99988.44
2023-04-06T06:38:51.370Z,99993.00
2023-04-06T06:41:19.137Z,99996.59
2023-04-06T06:43:46.891Z,99994.00
2023-04-06T06:46:15.017Z,99989.06
2023-04-06T06:48:42.890Z,99983.13
2023-04-06T06:51:10.796Z,99985.91
2023-04-06T06:53:38.811Z,99987.78
2023-04-06T06:56:06.660Z,99982.56
2023-04-06T06:58:36.502Z,99976.41
2023-04-06T07:01:06.324Z,99975.44
2023-04-06T07:03:34.393Z,99984.34
2023-04-06T07:06:02.432Z,99968.72
2023-04-06T07:08:30.228Z,99969.72
2023-04-06T07:10:58.436Z,99970.59
2023-04-06T07:13:28.142Z,99969.66
2023-04-06T07:15:55.913Z,99960.69
2023-04-06T07:18:23.885Z,99962.28
2023-04-06T07:20:52.006Z,99964.72
2023-04-06T07:23:20.091Z,99954.88
2023-04-06T07:25:48.042Z,99952.09
2023-04-06T07:28:15.917Z,99944.84
2023-04-06T07:30:44.290Z,99957.09
2023-04-06T07:33:12.242Z,99952.47
2023-04-06T07:35:41.210Z,99951.53
2023-04-06T07:38:11.259Z,99954.97
2023-04-06T07:40:39.102Z,99942.69
2023-04-06T07:43:07.100Z,99947.13
2023-04-06T07:45:34.986Z,99938.53
2023-04-06T07:48:03.267Z,99939.38
2023-04-06T07:50:31.053Z,99935.69
2023-04-06T07:52:59.036Z,99925.06
2023-04-06T07:55:27.159Z,99932.25
2023-04-06T07:57:54.925Z,99935.84
2023-04-06T08:00:23.245Z,99927.84
2023-04-06T08:02:51.259Z,99929.72
2023-04-06T08:05:20.597Z,99929.56
2023-04-06T08:07:49.414Z,99927.81
2023-04-06T08:10:17.550Z,99926.19
2023-04-06T08:12:46.008Z,99926.47
2023-04-06T08:15:13.969Z,99926.59
2023-04-06T08:17:42.182Z,99926.88
2023-04-06T08:20:10.330Z,99931.28
2023-04-06T08:22:38.138Z,99919.81
2023-04-06T08:25:06.071Z,99926.84
2023-04-06T08:27:34.493Z,99923.72
2023-04-06T08:30:02.747Z,99913.22
2023-04-06T08:32:31.396Z,99929.97
2023-04-06T08:34:59.321Z,99914.97
2023-04-06T08:37:27.709Z,99926.47
2023-04-06T08:39:55.736Z,99922.59
2023-04-06T08:42:23.649Z,99921.47
2023-04-06T08:44:52.470Z,99923.06
2023-04-06T08:47:23.115Z,99919.63
2023-04-06T08:49:53.454Z,99929.28
2023-04-06T08:52:23.567Z,99917.53
2023-04-06T08:54:51.454Z,99910.44
2023-04-06T08:57:19.432Z,99918.44
2023-04-06T08:59:47.679Z,99913.03
2023-04-06T09:02:16.277Z,99906.53
2023-04-06T09:04:44.363Z,99902.75
2023-04-06T09:07:12.382Z,99907.38
2023-04-06T09:09:44.546Z,99903.72
2023-04-06T09:12:13.709Z,99903.78
2023-04-06T09:14:44.231Z,99901.50
2023-04-06T09:17:12.112Z,99894.00
2023-04-06T09:19:40.100Z,99897.91
2023-04-06T09:22:08.711Z,99888.34
2023-04-06T09:24:36.676Z,99888.03
2023-04-06T09:27:05.435Z,99877.00
2023-04-06T09:29:33.309Z,99872.41
2023-04-06T09:32:01.532Z,99879.13
2023-04-06T09:34:29.608Z,99867.06
2023-04-06T09:36:57.562Z,99872.91
2023-04-06T09:39:26.287Z,99874.44
2023-04-06T09:41:54.408Z,99884.25
2023-04-06T09:44:22.387Z,99874.94
2023-04-06T09:47:00.520Z,99870.84
2023-04-06T09:49:30.014Z,99874.75
2023-04-06T09:51:58.430Z,99873.13
2023-04-06T09:54:26.433Z,99855.56
2023-04-06T09:56:54.538Z,99870.28
2023-04-06T09:59:22.492Z,99869.16
2023-04-06T10:01:50.770Z,99858.84
2023-04-06T10:04:19.181Z,99862.34
2023-04-06T10:06:49.192Z,99860.78
2023-04-06T10:09:17.162Z,99854.75
2023-04-06T10:11:45.147Z,99854.97
2023-04-06T10:14:14.231Z,99849.03
2023-04-06T10:16:42.277Z,99860.91
2023-04-06T10:19:10.305Z,99863.91
2023-04-06T10:21:39.231Z,99856.19
2023-04-06T10:24:07.799Z,99864.13
2023-04-06T10:26:36.198Z,99852.50
2023-04-06T10:29:04.261Z,99855.50
2023-04-06T10:31:32.529Z,99858.28
2023-04-06T10:34:00.983Z,99862.06
2023-04-06T10:36:29.284Z,99858.88
2023-04-06T10:38:57.775Z,99861.03
2023-04-06T10:41:26.917Z,99867.03
2023-04-06T10:43:54.850Z,99858.53
2023-04-06T10:46:22.965Z,99857.66
2023-04-06T10:48:51.968Z,99850.47
2023-04-06T10:51:20.457Z,99864.72
2023-04-06T10:53:48.760Z,99854.84
2023-04-06T10:56:16.787Z,99851.69
2023-04-06T10:58:46.536Z,99859.28
2023-04-06T11:01:14.438Z,99857.13
2023-04-06T11:03:43.290Z,99861.66
2023-04-06T11:06:11.398Z,99855.34
2023-04-06T11:08:40.540Z,99848.72
2023-04-06T11:11:09.534Z,99853.97
2023-04-06T11:13:37.596Z,99835.72
2023-04-06T11:16:05.477Z,99843.09
2023-04-06T11:18:33.480Z,99840.56
2023-04-06T11:21:01.917Z,99845.81
2023-04-06T11:23:30.112Z,99846.03
2023-04-06T11:25:58.177Z,99844.44
2023-04-06T11:28:26.125Z,99849.97
2023-04-06T11:30:54.029Z,99843.97
2023-04-06T11:33:22.143Z,99838.31
2023-04-06T11:35:50.275Z,99838.16
2023-04-06T11:38:18.263Z,99832.47
2023-04-06T11:40:46.781Z,99823.09
2023-04-06T11:43:14.685Z,99813.50
2023-04-06T11:45:42.479Z,99819.13
2023-04-06T11:50:43.773Z,99816.66
2023-04-06T11:53:12.122Z,99815.34
2023-04-06T11:55:40.141Z,99810.47
2023-04-06T11:58:08.318Z,99813.34
2023-04-06T12:00:38.543Z,99805.06
2023-04-06T12:03:06.629Z,99813.84
2023-04-06T12:05:35.493Z,99811.31
2023-04-06T12:08:03.865Z,99816.56
2023-04-06T12:10:31.988Z,99812.84
2023-04-06T12:13:00.055Z,99814.38
2023-04-06T12:15:28.208Z,99809.00
2023-04-06T12:17:56.594Z,99804.94
2023-04-06T12:20:26.678Z,99805.94
2023-04-06T12:22:55.669Z,99801.59
2023-04-06T12:25:23.767Z,99800.91
2023-04-06T12:27:52.054Z,99799.91
2023-04-06T12:30:20.269Z,99792.16
2023-04-06T12:32:50.936Z,99796.69
2023-04-06T12:35:20.971Z,99795.56
2023-04-06T12:37:49.114Z,99795.84
2023-04-06T12:40:17.193Z,99804.03
2023-04-06T12:42:47.171Z,99808.22
2023-04-06T12:45:15.111Z,99797.72
2023-04-06T12:47:43.182Z,99798.72
2023-04-06T12:50:12.831Z,99800.38
2023-04-06T12:52:40.690Z,99804.16
2023-04-06T12:55:08.988Z,99799.44
2023-04-06T12:57:38.391Z,99803.97
2023-04-06T13:00:08.512Z,99797.44
2023-04-06T13:02:37.460Z,99804.63
2023-04-06T13:05:05.587Z,99798.06
2023-04-06T13:07:33.811Z,99795.03
2023-04-06T13:10:01.702Z,99784.84
2023-04-06T13:12:29.875Z,99784.75
2023-04-06T13:14:59.378Z,99793.38
2023-04-06T13:17:28.453Z,99788.19
2023-04-06T13:19:56.899Z,99787.69
2023-04-06T13:22:25.018Z,99787.69
2023-04-06T13:24:52.813Z,99776.47
2023-04-06T13:27:21.117Z,99775.63
2023-04-06T13:29:49.031Z,99769.91
2023-04-06T13:32:17.435Z,99779.97
2023-04-06T13:34:46.221Z,99775.28
2023-04-06T13:37:14.083Z,99769.25
2023-04-06T13:39:42.347Z,99762.88
2023-04-06T13:42:12.566Z,99757.28
2023-04-06T13:44:40.366Z,99764.19
2023-04-06T13:47:08.375Z,99757.78
2023-04-06T13:49:36.644Z,99761.97
2023-04-06T13:52:06.306Z,99756.63
2023-04-06T13:54:34.050Z,99765.56
2023-04-06T13:57:02.481Z,99765.06
2023-04-06T13:59:30.937Z,99767.81
2023-04-06T14:01:58.919Z,99763.38
2023-04-06T14:04:26.934Z,99763.00
2023-04-06T14:06:54.878Z,99762.63
2023-04-06T14:09:23.334Z,99764.16
2023-04-06T14:11:51.244Z,99763.84
2023-04-06T14:14:19.207Z,99767.75
2023-04-06T14:16:47.642Z,99767.28
2023-04-06T14:19:15.704Z,99763.19
2023-04-06T14:21:45.213Z,99769.03
2023-04-06T14:24:12.987Z,99760.31
2023-04-06T14:26:40.947Z,99766.59
2023-04-06T14:29:09.119Z,99760.25
2023-04-06T14:31:37.103Z,99769.16
2023-04-06T14:34:05.159Z,99771.38
2023-04-06T14:36:37.570Z,99783.63
2023-04-06T14:39:07.193Z,99779.63
2023-04-06T14:41:35.394Z,99774.63
2023-04-06T14:44:03.375Z,99767.09
2023-04-06T14:46:31.750Z,99773.34
2023-04-06T14:49:00.061Z,99772.78
2023-04-06T14:51:28.495Z,99777.88
2023-04-06T14:53:56.430Z,99778.47
2023-04-06T14:56:24.420Z,99777.06
2023-04-06T14:58:53.278Z,99763.13
2023-04-06T15:01:21.293Z,99776.53
2023-04-06T15:03:50.045Z,99772.16
2023-04-06T15:06:18.590Z,99766.13
2023-04-06T15:08:46.464Z,99775.56
2023-04-06T15:11:14.464Z,99766.44
2023-04-06T15:13:42.735Z,99776.06
2023-04-06T15:16:10.823Z,99771.28
2023-04-06T15:18:38.931Z,99778.34
2023-04-06T15:21:07.355Z,99776.66
2023-04-06T15:23:36.095Z,99785.88
2023-04-06T15:26:05.119Z,99786.13
2023-04-06T15:28:32.957Z,99779.84
2023-04-06T15:31:01.164Z,99781.38
2023-04-06T15:33:29.225Z,99777.84
2023-04-06T15:35:57.681Z,99787.16
2023-04-06T15:38:25.633Z,99783.50
2023-04-06T15:40:53.436Z,99780.78
2023-04-06T15:43:21.436Z,99793.03
2023-04-06T15:45:49.231Z,99791.19
2023-04-06T15:48:17.329Z,99795.25
2023-04-06T15:50:45.162Z,99786.97
2023-04-06T15:53:13.014Z,99783.41
2023-04-06T15:55:40.918Z,99794.78
2023-04-06T15:58:08.800Z,99789.28
2023-04-06T16:00:37.263Z,99786.88
2023-04-06T16:03:05.371Z,99781.81
2023-04-06T16:05:34.776Z,99792.63
2023-04-06T16:08:03.262Z,99796.56
2023-04-06T16:10:31.109Z,99793.44
2023-04-06T16:12:58.970Z,99799.31
2023-04-06T16:15:26.895Z,99795.38
2023-04-06T16:17:54.849Z,99795.22
2023-04-06T16:20:23.243Z,99793.06
2023-04-06T16:22:51.455Z,99808.78
2023-04-06T16:25:19.761Z,99806.50
2023-04-06T16:27:48.363Z,99808.03
2023-04-06T16:30:16.200Z,99808.53
2023-04-06T16:32:46.790Z,99803.88
2023-04-06T16:35:14.552Z,99802.94
2023-04-06T16:37:42.387Z,99801.19
2023-04-06T16:40:10.271Z,99814.31
2023-04-06T16:42:38.075Z,99812.31
2023-04-06T16:45:06.527Z,99817.44
2023-04-06T16:47:34.481Z,99812.03
2023-04-06T16:50:05.143Z,99821.88
2023-04-06T16:52:33.978Z,99821.78
2023-04-06T16:55:02.039Z,99821.69
2023-04-06T16:57:30.583Z,99823.56
2023-04-06T16:59:58.647Z,99821.91
2023-04-06T17:02:26.967Z,99824.47
2023-04-06T17:04:54.980Z,99825.22
2023-04-06T17:07:26.680Z,99828.25
2023-04-06T17:09:55.210Z,99825.09
2023-04-06T17:12:23.168Z,99820.25
2023-04-06T17:14:51.582Z,99828.72
2023-04-06T17:17:19.530Z,99831.03
2023-04-06T17:19:47.374Z,99825.56
2023-04-06T17:22:20.788Z,99828.13
2023-04-06T17:24:49.002Z,99825.94
2023-04-06T17:27:17.309Z,99827.47
2023-04-06T17:29:45.417Z,99832.81
2023-04-06T17:32:13.315Z,99837.00
2023-04-06T17:34:41.220Z,99838.31
2023-04-06T17:37:09.302Z,99840.59
2023-04-06T17:39:37.843Z,99839.03
2023-04-06T17:42:06.161Z,99848.19
2023-04-06T17:44:34.967Z,99839.72
2023-04-06T17:47:02.833Z,99852.00
2023-04-06T17:49:30.657Z,99855.59
2023-04-06T17:51:59.349Z,99856.50
2023-04-06T17:54:27.248Z,99861.03
2023-04-06T17:56:55.193Z,99857.25
2023-04-06T17:59:23.127Z,99855.88
2023-04-06T18:01:51.186Z,99856.22
2023-04-06T18:04:19.502Z,99864.31
2023-04-06T18:06:47.496Z,99859.84
2023-04-06T18:09:15.490Z,99863.34
2023-04-06T18:11:43.824Z,99864.06
2023-04-06T18:14:12.846Z,99868.53
2023-04-06T18:16:41.326Z,99859.72
2023-04-06T18:19:09.356Z,99860.91
2023-04-06T18:21:37.299Z,99857.97
2023-04-06T18:24:06.702Z,99862.88
2023-04-06T18:26:34.688Z,99867.44
2023-04-06T18:29:03.094Z,99863.31
2023-04-06T18:31:31.052Z,99870.63
2023-04-06T18:33:59.401Z,99860.34
2023-04-06T18:36:28.401Z,99859.84
2023-04-06T18:38:56.357Z,99860.91
2023-04-06T18:41:24.938Z,99857.63
2023-04-06T18:43:52.964Z,99863.34
2023-04-06T18:46:21.274Z,99859.31
2023-04-06T18:48:49.229Z,99857.84
2023-04-06T18:51:17.136Z,99856.25
2023-04-06T18:53:45.764Z,99850.31
2023-04-06T18:56:13.652Z,99851.38
2023-04-06T18:58:42.644Z,99853.19
2023-04-06T19:01:10.725Z,99850.53
2023-04-06T19:03:40.264Z,99853.38
2023-04-06T19:06:09.576Z,99851.81
2023-04-06T19:08:37.474Z,99847.69
2023-04-06T19:11:05.257Z,99848.63
2023-04-06T19:13:34.622Z,99849.69
2023-04-06T19:16:02.567Z,99844.38
2023-04-06T19:18:30.830Z,99852.34
2023-04-06T19:20:59.243Z,99844.47
2023-04-06T19:23:27.306Z,99840.28
2023-04-06T19:25:56.717Z,99842.16
2023-04-06T19:28:24.703Z,99842.38
2023-04-06T19:30:52.980Z,99836.44
2023-04-06T19:33:21.109Z,99845.34
2023-04-06T19:35:49.150Z,99838.38
2023-04-06T19:38:17.239Z,99836.69
2023-04-06T19:40:45.047Z,99839.41
2023-04-06T19:43:13.268Z,99832.44
2023-04-06T19:45:41.091Z,99839.31
2023-04-06T19:48:08.923Z,99828.59
2023-04-06T19:50:37.209Z,99830.19
2023-04-06T19:53:05.331Z,99829.22
2023-04-06T19:55:33.582Z,99828.19
2023-04-06T19:58:01.566Z,99824.56
2023-04-06T20:00:29.490Z,99829.78
2023-04-06T20:02:57.582Z,99815.66
2023-04-06T20:05:26.101Z,99818.44
2023-04-06T20:07:54.004Z,99815.88
2023-04-06T20:10:21.936Z,99810.78
2023-04-06T20:12:50.798Z,99818.00
2023-04-06T20:15:19.346Z,99811.97
2023-04-06T20:17:47.183Z,99804.75
2023-04-06T20:20:15.394Z,99802.22
2023-04-06T20:22:43.227Z,99807.63
2023-04-06T20:25:11.808Z,99802.53
2023-04-06T20:27:41.475Z,99810.69
2023-04-06T20:30:09.256Z,99797.69
2023-04-06T20:32:37.509Z,99799.56
2023-04-06T20:35:05.463Z,99790.66
2023-04-06T20:37:33.231Z,99789.91
2023-04-06T20:40:01.785Z,99790.88
2023-04-06T20:42:30.213Z,99787.28
2023-04-06T20:44:58.901Z,99787.41
2023-04-06T20:47:27.468Z,99783.03
2023-04-06T20:49:55.981Z,99774.25
2023-04-06T20:52:23.974Z,99771.59
2023-04-06T20:54:52.088Z,99761.00
2023-04-06T20:57:20.483Z,99764.72
2023-04-06T20:59:48.300Z,99755.16
2023-04-06T21:02:16.333Z,99755.41
2023-04-06T21:04:44.692Z,99753.81
2023-04-06T21:07:12.601Z,99757.41
2023-04-06T21:09:40.845Z,99748.75
2023-04-06T21:12:08.762Z,99751.38
2023-04-06T21:14:36.787Z,99748.84
2023-04-06T21:17:04.696Z,99759.44
2023-04-06T21:19:32.519Z,99768.19
2023-04-06T21:22:01.051Z,99742.81
2023-04-06T21:24:28.930Z,99748.09
2023-04-06T21:26:57.078Z,99737.50
2023-04-06T21:29:25.049Z,99740.88
2023-04-06T21:31:55.731Z,99737.28
2023-04-06T21:34:23.959Z,99736.31
2023-04-06T21:36:51.817Z,99742.56
2023-04-06T21:39:19.743Z,99736.31
2023-04-06T21:41:48.002Z,99740.66
2023-04-06T21:44:17.710Z,99730.94
2023-04-06T21:46:46.428Z,99737.91
2023-04-06T21:49:14.319Z,99736.94
2023-04-06T21:51:42.981Z,99729.75
2023-04-06T21:54:10.833Z,99728.69
2023-04-06T21:56:38.726Z,99729.41
2023-04-06T21:59:07.012Z,99722.22
2023-04-06T22:01:34.916Z,99721.28
2023-04-06T22:04:03.021Z,99715.00
2023-04-06T22:06:31.193Z,99718.63
2023-04-06T22:09:00.627Z,99721.38
2023-04-06T22:11:28.982Z,99711.81
2023-04-06T22:13:56.749Z,99722.56
2023-04-06T22:16:24.550Z,99719.91
2023-04-06T22:18:52.704Z,99715.66
2023-04-06T22:21:20.706Z,99708.53
2023-04-06T22:23:48.846Z,99719.03
2023-04-06T22:26:16.830Z,99711.09
2023-04-06T22:28:44.687Z,99708.34
2023-04-06T22:31:12.558Z,99703.78
2023-04-06T22:33:40.462Z,99706.34
2023-04-06T22:36:09.024Z,99703.56
2023-04-06T22:38:36.783Z,99706.97
2023-04-06T22:41:05.995Z,99705.88
2023-04-06T22:43:35.176Z,99713.72
2023-04-06T22:46:02.979Z,99710.00
2023-04-06T22:48:31.184Z,99709.78
2023-04-06T22:50:58.968Z,99711.28
2023-04-06T22:53:27.221Z,99704.06
2023-04-06T22:55:55.326Z,99699.47
2023-04-06T22:58:23.459Z,99695.75
2023-04-06T23:00:51.542Z,99698.22
2023-04-06T23:03:19.455Z,99694.50
2023-04-06T23:05:47.878Z,99693.41
2023-04-06T23:08:15.964Z,99693.31
2023-04-06T23:10:43.716Z,99686.94
2023-04-06T23:13:11.462Z,99685.88
2023-04-06T23:15:39.130Z,99684.91
2023-04-06T23:18:07.063Z,99683.94
2023-04-06T23:20:36.497Z,99688.28
2023-04-06T23:23:04.211Z,99683.09
2023-04-06T23:25:32.292Z,99674.31
2023-04-06T23:28:00.111Z,99681.31
2023-04-06T23:30:27.787Z,99680.34
2023-04-06T23:32:55.535Z,99670.59
2023-04-06T23:35:23.320Z,99672.38
2023-04-06T23:37:51.352Z,99672.38
2023-04-06T23:40:19.455Z,99675.91
2023-04-06T23:42:47.183Z,99673.13
2023-04-06T23:45:14.815Z,99673.13
2023-04-06T23:47:42.517Z,99670.69
2023-04-06T23:50:10.792Z,99675.28
2023-04-06T23:52:38.417Z,99663.91
2023-04-06T23:55:06.723Z,99671.03
2023-04-06T23:57:34.589Z,99670.19
